Time;durP1;ratioP1;P1;durP2;ratioP2;P2;SDS_P1;SDS_P2;PMS_P1;PMS_P2;Temp;Humidity;BMP_temperature;BMP_pressure;BME280_temperature;BME280_humidity;BME280_pressure;Samples;Min_cycle;Max_cycle;Signal;HPM_P1;HPM_P2
2023/06/21 00:02:17;;;;;;;16.73;10.38;;;;;;;18.81;100.00;93847.03;5031494;28;20049;-56
2023/06/21 00:04:43;;;;;;;16.70;10.80;;;;;;;18.79;100.00;93851.50;5031470;28;20390;-58
2023/06/21 00:07:10;;;;;;;19.38;10.98;;;;;;;18.75;100.00;93849.66;5031164;28;20041;-62
2023/06/21 00:09:37;;;;;;;55.67;39.00;;;;;;;18.70;100.00;93850.28;5031988;28;20041;-60
2023/06/21 00:12:04;;;;;;;25.70;16.67;;;;;;;18.62;100.00;93849.09;5031224;28;20037;-56
2023/06/21 00:14:31;;;;;;;16.92;11.82;;;;;;;18.50;100.00;93845.28;5031799;28;20067;-56
2023/06/21 00:16:57;;;;;;;15.82;10.88;;;;;;;18.39;100.00;93860.91;5031149;28;20053;-59
2023/06/21 00:19:24;;;;;;;20.05;11.55;;;;;;;18.32;100.00;93873.88;5031153;28;20085;-53
2023/06/21 00:21:51;;;;;;;16.83;11.13;;;;;;;18.28;100.00;93870.50;5031434;28;20402;-56
2023/06/21 00:24:18;;;;;;;15.98;11.32;;;;;;;18.29;100.00;93879.59;5031170;28;20059;-60
2023/06/21 00:26:45;;;;;;;18.23;11.25;;;;;;;18.30;100.00;93881.91;5031135;28;20083;-53
2023/06/21 00:29:12;;;;;;;16.25;11.40;;;;;;;18.25;100.00;93882.56;5030493;28;20490;-54
2023/06/21 00:31:38;;;;;;;16.92;11.45;;;;;;;18.09;100.00;93882.88;5010387;28;20466;-60
2023/06/21 00:34:05;;;;;;;18.03;11.23;;;;;;;18.10;100.00;93884.44;5009696;28;20054;-60
2023/06/21 00:36:32;;;;;;;17.63;11.07;;;;;;;18.14;100.00;93890.59;5025048;28;20505;-56
2023/06/21 00:38:58;;;;;;;16.23;11.23;;;;;;;18.17;100.00;93886.91;5030928;28;20053;-54
2023/06/21 00:41:25;;;;;;;15.77;10.90;;;;;;;18.17;100.00;93886.91;5030339;28;20041;-53
2023/06/21 00:43:52;;;;;;;16.02;10.80;;;;;;;18.20;100.00;93882.41;5030732;28;20158;-59
2023/06/21 00:46:18;;;;;;;15.93;10.60;;;;;;;18.14;100.00;93890.59;5027179;28;20053;-58
2023/06/21 00:48:45;;;;;;;16.20;10.50;;;;;;;17.98;100.00;93888.16;5021248;28;20108;-57
2023/06/21 00:51:13;;;;;;;15.00;10.50;;;;;;;17.99;100.00;93895.22;5029849;28;20092;-62
2023/06/21 00:53:41;;;;;;;15.70;11.10;;;;;;;18.00;100.00;93894.00;5017522;28;20045;-57
2023/06/21 00:56:08;;;;;;;20.55;11.88;;;;;;;17.90;100.00;93905.13;5030406;28;20044;-55
2023/06/21 00:58:34;;;;;;;20.53;11.60;;;;;;;17.93;100.00;93911.78;5017508;28;20046;-57
2023/06/21 01:01:01;;;;;;;18.73;11.60;;;;;;;17.91;100.00;93915.00;5030984;28;20492;-60
2023/06/21 01:03:28;;;;;;;16.73;11.70;;;;;;;17.89;100.00;93913.94;5015692;28;20621;-58
2023/06/21 01:06:09;;;;;;;15.48;10.60;;;;;;;17.90;100.00;93916.22;5030594;28;20055;-58
2023/06/21 01:08:51;;;;;;;16.75;11.38;;;;;;;17.98;100.00;93919.47;5025969;28;20453;-60
2023/06/21 01:11:28;;;;;;;16.63;11.47;;;;;;;18.03;100.00;93909.72;5022834;28;20112;-59
2023/06/21 01:14:10;;;;;;;16.77;11.00;;;;;;;18.01;100.00;93915.78;5030758;28;20045;-53
2023/06/21 01:16:44;;;;;;;18.25;10.45;;;;;;;17.99;100.00;93915.47;5027851;28;20418;-55
2023/06/21 01:19:52;;;;;;;16.38;10.45;;;;;;;17.98;100.00;93905.56;5030106;28;20041;-54
2023/06/21 01:22:24;;;;;;;15.32;10.27;;;;;;;17.95;100.00;93909.28;5009782;28;20052;-60
2023/06/21 01:25:06;;;;;;;17.20;10.87;;;;;;;17.93;100.00;93909.75;5030106;28;20075;-55
2023/06/21 01:27:52;;;;;;;16.45;10.63;;;;;;;17.92;100.00;93915.75;5028932;28;20643;-56
2023/06/21 01:30:20;;;;;;;17.90;11.38;;;;;;;17.89;100.00;93916.72;5029601;28;20120;-55
2023/06/21 01:32:49;;;;;;;15.30;10.65;;;;;;;17.87;100.00;93917.16;5030088;28;20492;-52
2023/06/21 01:35:16;;;;;;;15.88;10.35;;;;;;;17.85;100.00;93930.72;5029453;28;20413;-55
2023/06/21 01:37:43;;;;;;;16.80;10.70;;;;;;;17.86;100.00;93937.06;5016767;28;20042;-56
2023/06/21 01:40:11;;;;;;;15.05;9.88;;;;;;;17.85;100.00;93927.97;5029644;28;20057;-60
2023/06/21 01:42:39;;;;;;;15.18;10.43;;;;;;;17.86;100.00;93934.28;5029715;28;20421;-60
2023/06/21 01:45:06;;;;;;;15.55;10.55;;;;;;;17.84;100.00;93940.28;5020733;28;20122;-58
2023/06/21 01:47:34;;;;;;;16.88;10.13;;;;;;;17.80;100.00;93949.97;5040692;28;20034;-56
2023/06/21 01:50:04;;;;;;;17.00;10.70;;;;;;;17.78;100.00;93947.66;5029881;28;20091;-56
2023/06/21 01:52:32;;;;;;;15.98;10.38;;;;;;;17.85;100.00;93958.50;5028349;28;20076;-60
2023/06/21 01:55:00;;;;;;;18.35;10.88;;;;;;;17.89;100.00;93959.13;5029970;28;20046;-57
2023/06/21 01:57:27;;;;;;;16.92;10.65;;;;;;;17.96;100.00;93955.25;5028641;28;20068;-55
2023/06/21 01:59:54;;;;;;;16.55;11.32;;;;;;;17.94;100.00;93950.16;5029629;28;20071;-56
2023/06/21 02:02:22;;;;;;;16.77;11.00;;;;;;;17.98;100.00;93952.00;5028594;28;20045;-56
2023/06/21 02:04:51;;;;;;;17.00;11.60;;;;;;;17.94;100.00;93957.72;5029403;28;20052;-55
2023/06/21 02:07:19;;;;;;;17.63;10.80;;;;;;;17.90;100.00;93965.44;5028386;28;20057;-60
2023/06/21 02:09:47;;;;;;;17.92;11.40;;;;;;;17.86;100.00;93973.13;5029571;28;20183;-53
2023/06/21 02:12:13;;;;;;;17.52;11.20;;;;;;;17.93;100.00;93968.06;5028992;28;20072;-54
2023/06/21 02:14:40;;;;;;;19.03;12.17;;;;;;;17.96;100.00;93969.13;5028594;28;20053;-56
2023/06/21 02:17:08;;;;;;;20.55;13.27;;;;;;;17.56;100.00;93962.41;5032026;28;20076;-57
2023/06/21 02:19:35;;;;;;;18.30;12.20;;;;;;;17.51;100.00;93963.03;5027906;28;20064;-60
2023/06/21 02:22:02;;;;;;;16.90;12.15;;;;;;;17.33;100.00;93960.22;5029333;28;20037;-58
2023/06/21 02:24:29;;;;;;;17.83;12.38;;;;;;;17.13;100.00;93963.41;5028028;28;20142;-58
2023/06/21 02:26:56;;;;;;;19.90;12.10;;;;;;;17.41;100.00;93967.03;5044063;28;20042;-55
2023/06/21 02:29:22;;;;;;;19.38;11.35;;;;;;;17.56;100.00;93986.63;5026909;28;20049;-55
2023/06/21 02:31:49;;;;;;;18.92;12.05;;;;;;;17.41;100.00;94005.09;5020204;28;20111;-60
2023/06/21 02:34:16;;;;;;;19.95;12.50;;;;;;;17.39;100.00;93991.69;5027929;28;20037;-57
2023/06/21 02:36:42;;;;;;;20.67;12.75;;;;;;;17.09;100.00;94002.38;5016943;28;20040;-55
2023/06/21 02:39:10;;;;;;;19.40;12.67;;;;;;;17.42;100.00;94006.63;5011243;28;20115;-60
2023/06/21 02:41:37;;;;;;;18.45;11.68;;;;;;;17.60;100.00;94000.38;5028791;28;20045;-52
2023/06/21 02:44:03;;;;;;;22.00;12.23;;;;;;;17.73;100.00;93995.47;5027886;28;20041;-55
2023/06/21 02:46:30;;;;;;;21.02;11.95;;;;;;;17.79;100.00;93999.19;5027531;28;20064;-59
2023/06/21 02:48:57;;;;;;;20.13;12.18;;;;;;;17.69;100.00;94009.47;5027071;28;20115;-56
2023/06/21 02:51:25;;;;;;;20.50;13.10;;;;;;;17.66;100.00;94007.63;5023346;28;20040;-60
2023/06/21 02:53:52;;;;;;;20.10;12.40;;;;;;;17.74;100.00;94014.41;5022417;28;20050;-55
2023/06/21 02:56:18;;;;;;;21.77;11.90;;;;;;;17.77;100.00;94030.16;5002368;28;20497;-54
2023/06/21 02:58:45;;;;;;;20.35;12.65;;;;;;;17.70;100.00;94026.91;5028765;28;20052;-53
2023/06/21 03:01:13;;;;;;;18.75;12.93;;;;;;;17.80;100.00;94027.69;5027419;28;20449;-57
2023/06/21 03:03:43;;;;;;;18.63;13.00;;;;;;;17.88;100.00;94026.97;5028623;28;20401;-60
2023/06/21 03:06:11;;;;;;;18.90;12.50;;;;;;;17.80;100.00;94036.03;5029892;28;20476;-55
2023/06/21 03:08:38;;;;;;;18.27;12.25;;;;;;;17.73;100.00;94045.44;5028053;28;20441;-59
2023/06/21 03:11:08;;;;;;;20.38;12.93;;;;;;;17.47;100.00;94059.53;5027266;28;20399;-55
2023/06/21 03:13:36;;;;;;;18.90;12.77;;;;;;;17.34;100.00;94067.97;5026924;28;20052;-57
2023/06/21 03:16:04;;;;;;;18.33;12.67;;;;;;;17.20;100.00;94082.34;5027073;28;20405;-60
2023/06/21 03:18:31;;;;;;;21.50;13.18;;;;;;;17.39;100.00;94085.25;5028278;28;20143;-56
2023/06/21 03:21:01;;;;;;;20.85;12.68;;;;;;;17.57;100.00;94074.22;5027761;28;20056;-55
2023/06/21 03:23:28;;;;;;;22.10;13.45;;;;;;;17.63;100.00;94091.81;5027390;28;20821;-61
2023/06/21 03:25:54;;;;;;;20.70;13.07;;;;;;;17.67;100.00;94098.00;5028010;28;20057;-57
2023/06/21 03:28:21;;;;;;;18.90;12.90;;;;;;;17.74;100.00;94094.91;5031600;28;20043;-60
2023/06/21 03:30:48;;;;;;;20.38;12.65;;;;;;;17.76;100.00;94088.91;5020086;28;20410;-55
2023/06/21 03:33:15;;;;;;;19.35;13.07;;;;;;;17.72;100.00;94080.72;5031986;28;20049;-56
2023/06/21 03:35:42;;;;;;;21.20;12.32;;;;;;;17.74;100.00;94081.03;5033213;28;20049;-61
2023/06/21 03:38:09;;;;;;;20.65;13.00;;;;;;;17.83;100.00;94080.34;5005436;28;20054;-56
2023/06/21 03:40:36;;;;;;;21.97;13.17;;;;;;;17.66;100.00;94082.56;5020908;28;20068;-60
2023/06/21 03:43:02;;;;;;;19.23;13.27;;;;;;;17.60;100.00;94087.16;5031660;28;20401;-56
2023/06/21 03:45:29;;;;;;;23.48;14.02;;;;;;;17.48;100.00;94090.81;5032193;28;20409;-54
2023/06/21 03:47:56;;;;;;;24.65;14.75;;;;;;;17.26;100.00;94096.41;5031795;28;20053;-57
2023/06/21 03:50:23;;;;;;;21.90;14.07;;;;;;;17.27;100.00;94095.97;5031502;28;20045;-59
2023/06/21 03:52:49;;;;;;;18.97;13.13;;;;;;;17.51;100.00;94095.47;5031978;28;20046;-56
2023/06/21 03:55:18;;;;;;;25.92;15.43;;;;;;;17.74;100.00;94091.38;5025439;28;20492;-61
2023/06/21 03:57:45;;;;;;;21.80;14.70;;;;;;;17.87;100.00;94077.41;5010880;28;20049;-59
2023/06/21 04:00:13;;;;;;;19.70;12.95;;;;;;;17.95;100.00;94087.00;5010191;28;20045;-54
2023/06/21 04:02:40;;;;;;;21.83;12.50;;;;;;;17.93;100.00;94087.44;5031910;28;20033;-57
2023/06/21 04:05:09;;;;;;;20.37;12.37;;;;;;;18.03;100.00;94093.81;5018180;28;20414;-55
2023/06/21 04:07:39;;;;;;;20.88;12.80;;;;;;;18.07;100.00;94093.63;5032028;28;20525;-57
2023/06/21 04:10:08;;;;;;;21.73;12.75;;;;;;;18.13;100.00;94100.16;5030990;28;20053;-60
2023/06/21 04:12:36;;;;;;;20.23;12.50;;;;;;;18.16;100.00;94097.19;5031713;28;20381;-61
2023/06/21 04:15:04;;;;;;;21.60;12.98;;;;;;;18.22;100.00;94093.81;5031227;28;20049;-54
2023/06/21 04:17:31;;;;;;;19.83;12.77;;;;;;;18.13;100.00;94089.03;5018309;28;20531;-56
2023/06/21 04:19:58;;;;;;;19.45;13.00;;;;;;;18.20;100.00;94099.06;5031576;28;20053;-56
2023/06/21 04:22:25;;;;;;;17.00;12.82;;;;;;;18.35;100.00;94102.78;5025525;28;20495;-57
2023/06/21 04:24:52;;;;;;;20.60;12.40;;;;;;;18.35;100.00;94106.34;5022845;28;20201;-60
2023/06/21 04:27:19;;;;;;;20.35;12.52;;;;;;;18.51;100.00;94105.28;5029201;28;20067;-57
2023/06/21 04:29:48;;;;;;;17.07;12.43;;;;;;;18.43;100.00;94112.38;5026748;28;20049;-56
2023/06/21 04:32:14;;;;;;;19.02;12.75;;;;;;;18.20;100.00;94118.50;5027321;28;20053;-58
2023/06/21 04:34:47;;;;;;;20.50;13.57;;;;;;;18.09;100.00;94121.72;5028527;28;20049;-61
2023/06/21 04:37:14;;;;;;;18.05;13.13;;;;;;;18.29;100.00;94122.09;5012515;28;20050;-60
2023/06/21 04:39:41;;;;;;;18.92;13.05;;;;;;;18.44;100.00;94122.25;5018159;28;20530;-58
2023/06/21 04:42:08;;;;;;;19.37;12.27;;;;;;;18.67;100.00;94120.88;5028907;28;20166;-56
2023/06/21 04:44:35;;;;;;;17.92;12.48;;;;;;;18.83;100.00;94116.25;5019798;28;20042;-56
2023/06/21 04:47:02;;;;;;;17.70;12.07;;;;;;;19.16;100.00;94124.72;5031007;28;20494;-57
2023/06/21 04:49:29;;;;;;;19.77;12.40;;;;;;;19.45;100.00;94129.75;5030027;28;21693;-59
2023/06/21 04:51:57;;;;;;;19.20;12.88;;;;;;;19.58;100.00;94117.63;5020852;28;20038;-58
2023/06/21 04:54:25;;;;;;;20.63;12.40;;;;;;;19.12;100.00;94127.66;5021310;28;20041;-58
2023/06/21 04:56:53;;;;;;;19.58;12.75;;;;;;;19.43;100.00;94117.53;5030324;28;20110;-58
2023/06/21 04:59:20;;;;;;;20.15;13.07;;;;;;;19.67;100.00;94121.16;5030114;28;20508;-57
2023/06/21 05:01:47;;;;;;;18.98;13.32;;;;;;;20.04;100.00;94117.47;5030654;28;20050;-61
2023/06/21 05:04:14;;;;;;;20.45;12.10;;;;;;;20.39;100.00;94114.94;5022208;28;20495;-56
2023/06/21 05:06:41;;;;;;;18.67;12.63;;;;;;;20.49;100.00;94118.44;5012690;28;20436;-56
2023/06/21 05:09:11;;;;;;;19.55;12.48;;;;;;;20.44;100.00;94117.06;5022164;28;20043;-57
2023/06/21 05:11:38;;;;;;;17.40;12.73;;;;;;;20.26;100.00;94123.56;5028494;28;20037;-57
2023/06/21 05:14:05;;;;;;;18.95;13.07;;;;;;;20.04;100.00;94115.47;5029263;28;20259;-57
2023/06/21 05:16:32;;;;;;;21.05;13.50;;;;;;;20.00;100.00;94128.00;5019735;28;20038;-62
2023/06/21 05:18:59;;;;;;;19.47;13.33;;;;;;;20.20;100.00;94113.50;5027808;28;20060;-56
2023/06/21 05:21:25;;;;;;;17.25;12.65;;;;;;;20.62;100.00;94118.22;5029738;28;20046;-61
2023/06/21 05:23:52;;;;;;;18.85;13.30;;;;;;;21.05;100.00;94119.56;5016535;28;20038;-56
2023/06/21 05:26:19;;;;;;;17.80;12.52;;;;;;;21.71;100.00;94117.66;5029468;28;20071;-56
2023/06/21 05:28:46;;;;;;;21.50;13.38;;;;;;;22.56;100.00;94105.69;5028651;28;20045;-61
2023/06/21 05:31:12;;;;;;;17.67;12.73;;;;;;;22.17;100.00;94114.28;5017719;28;20410;-57
2023/06/21 05:33:39;;;;;;;21.13;12.80;;;;;;;21.97;100.00;94103.06;5028517;28;20049;-59
2023/06/21 05:36:06;;;;;;;20.83;13.02;;;;;;;22.21;100.00;94112.06;5029291;28;20049;-62
2023/06/21 05:38:33;;;;;;;24.02;12.60;;;;;;;22.28;100.00;94106.09;5019384;28;20099;-56
2023/06/21 05:40:59;;;;;;;16.23;12.00;;;;;;;23.42;100.00;94113.75;5017515;28;20045;-57
2023/06/21 05:43:26;;;;;;;17.03;12.37;;;;;;;24.02;100.00;94108.41;5015870;28;20038;-59
2023/06/21 05:45:53;;;;;;;19.08;12.10;;;;;;;24.31;100.00;94113.69;5028011;28;20060;-58
2023/06/21 05:48:20;;;;;;;17.88;11.80;;;;;;;24.18;100.00;94113.34;5029033;28;20052;-61
2023/06/21 05:50:47;;;;;;;19.52;12.10;;;;;;;24.28;100.00;94114.69;5029476;28;20037;-56
2023/06/21 05:53:13;;;;;;;17.92;11.48;;;;;;;24.50;100.00;94105.66;5029163;28;20044;-57
2023/06/21 05:55:40;;;;;;;17.53;12.30;;;;;;;23.88;100.00;94105.25;5029837;28;20048;-61
2023/06/21 05:58:07;;;;;;;17.60;11.63;;;;;;;24.10;100.00;94106.69;5029116;28;20076;-59
2023/06/21 06:00:34;;;;;;;16.40;11.30;;;;;;;24.61;100.00;94109.78;5029794;28;20428;-58
2023/06/21 06:03:01;;;;;;;16.70;12.50;;;;;;;24.69;100.00;94111.63;5029193;28;20108;-62
2023/06/21 06:05:28;;;;;;;16.27;11.32;;;;;;;24.81;100.00;94103.22;5021618;28;20042;-57
2023/06/21 06:07:55;;;;;;;17.00;12.73;;;;;;;23.76;100.00;94106.41;5010643;28;20092;-57
2023/06/21 06:10:22;;;;;;;20.10;12.45;;;;;;;23.42;100.00;94110.94;5024093;28;20077;-61
2023/06/21 06:12:48;;;;;;;18.02;12.60;;;;;;;23.69;100.00;94102.03;5029179;28;20037;-62
2023/06/21 06:15:15;;;;;;;20.02;12.40;;;;;;;24.63;100.00;94101.63;5029002;28;20042;-60
2023/06/21 06:17:42;;;;;;;17.50;12.20;;;;;;;24.95;100.00;94101.50;5029380;28;20430;-62
2023/06/21 06:20:09;;;;;;;18.27;11.70;;;;;;;26.07;100.00;94095.28;5028209;28;20579;-57
2023/06/21 06:22:36;;;;;;;17.92;11.77;;;;;;;26.64;100.00;94096.72;5028841;28;20041;-57
2023/06/21 06:25:03;;;;;;;17.02;11.32;;;;;;;26.12;100.00;94094.50;5028492;28;20370;-57
2023/06/21 06:27:30;;;;;;;15.35;11.40;;;;;;;26.09;100.00;94090.66;5043535;28;20406;-59
2023/06/21 06:29:57;;;;;;;16.30;11.40;;;;;;;26.31;100.00;94089.09;5023016;28;20321;-61
2023/06/21 06:32:26;;;;;;;18.20;11.57;;;;;;;26.68;100.00;94091.56;5028802;28;20049;-57
2023/06/21 06:34:54;;;;;;;13.77;10.80;;;;;;;27.67;97.81;94086.44;5029145;28;20077;-58
2023/06/21 06:37:23;;;;;;;18.48;10.70;;;;;;;27.68;92.97;94087.97;5028681;28;20041;-61
2023/06/21 06:39:57;;;;;;;15.82;11.63;;;;;;;26.43;100.00;94078.59;5028743;28;20156;-57
2023/06/21 06:42:24;;;;;;;17.90;11.57;;;;;;;26.12;100.00;94077.63;5028250;28;20041;-58
2023/06/21 06:44:52;;;;;;;16.43;11.47;;;;;;;25.61;100.00;94069.19;5027652;28;20190;-58
2023/06/21 06:47:19;;;;;;;18.38;11.70;;;;;;;26.11;100.00;94053.59;5027686;28;20080;-58
2023/06/21 06:49:46;;;;;;;16.85;12.38;;;;;;;25.83;100.00;94045.19;5027360;28;20046;-63
2023/06/21 06:52:13;;;;;;;15.93;12.00;;;;;;;25.97;100.00;94043.41;5028144;28;20042;-60
2023/06/21 06:54:40;;;;;;;20.23;12.50;;;;;;;26.62;100.00;94051.44;5014102;28;20053;-61
2023/06/21 06:57:07;;;;;;;17.47;11.70;;;;;;;26.67;100.00;94033.72;5008277;28;20053;-58
2023/06/21 06:59:41;;;;;;;17.83;12.27;;;;;;;27.09;100.00;94039.41;5027633;28;20083;-61
2023/06/21 07:02:08;;;;;;;16.92;12.55;;;;;;;27.82;96.81;94044.50;5027196;28;20110;-61
2023/06/21 07:04:35;;;;;;;16.25;11.88;;;;;;;27.79;96.28;94044.78;5003022;28;20041;-62
2023/06/21 07:07:05;;;;;;;17.35;12.55;;;;;;;28.51;91.11;94039.75;5042642;28;20053;-58
2023/06/21 07:09:33;;;;;;;16.13;11.27;;;;;;;29.63;82.10;94031.78;5028692;28;20037;-62
2023/06/21 07:12:01;;;;;;;16.15;10.82;;;;;;;30.30;72.11;94020.66;5015962;28;20108;-59
2023/06/21 07:14:28;;;;;;;14.30;10.50;;;;;;;30.79;69.07;94017.38;5021065;28;20042;-58
2023/06/21 07:16:55;;;;;;;14.93;10.60;;;;;;;31.15;67.19;94013.25;5028584;28;20359;-58
2023/06/21 07:19:22;;;;;;;14.82;9.60;;;;;;;32.31;60.91;94029.31;5028070;28;20043;-59
2023/06/21 07:21:49;;;;;;;15.37;9.83;;;;;;;33.27;57.74;94027.38;5028275;28;20049;-59
2023/06/21 07:24:16;;;;;;;11.93;9.65;;;;;;;34.92;52.75;94032.00;5021379;28;20109;-59
2023/06/21 07:26:43;;;;;;;13.55;10.00;;;;;;;34.28;50.78;94029.06;5020884;28;20167;-63
2023/06/21 07:29:10;;;;;;;12.32;9.23;;;;;;;35.47;46.72;94036.16;5028130;28;20045;-59
2023/06/21 07:31:37;;;;;;;10.98;8.43;;;;;;;35.51;46.47;94045.09;5008794;28;20068;-58
2023/06/21 07:34:07;;;;;;;14.33;8.23;;;;;;;32.99;48.39;94063.06;5027444;28;20049;-58
2023/06/21 07:36:36;;;;;;;10.15;8.05;;;;;;;29.70;56.39;94063.56;5017500;28;20046;-61
2023/06/21 07:39:07;;;;;;;13.68;8.95;;;;;;;27.28;70.70;94056.47;5026813;28;20103;-62
2023/06/21 07:41:34;;;;;;;16.63;9.63;;;;;;;26.26;85.51;94065.31;5027274;28;20510;-60
2023/06/21 07:44:01;;;;;;;14.25;8.98;;;;;;;26.09;90.73;94065.34;5015418;28;20122;-58
2023/06/21 07:46:27;;;;;;;14.20;9.20;;;;;;;26.34;88.24;94065.56;5022267;28;20137;-59
2023/06/21 07:48:54;;;;;;;14.35;9.27;;;;;;;25.96;92.03;94126.22;5019788;28;20387;-58
2023/06/21 07:51:21;;;;;;;12.52;9.98;;;;;;;25.22;100.00;94277.03;5027767;28;20045;-59
2023/06/21 07:53:47;;;;;;;68.53;5.30;;;;;;;21.83;100.00;94443.47;5028788;28;20040;-57
2023/06/21 07:56:16;;;;;;;26.50;5.38;;;;;;;19.28;100.00;94482.72;5026791;28;20033;-62
2023/06/21 07:58:43;;;;;;;152.53;13.17;;;;;;;19.01;100.00;94447.22;5028305;28;20045;-52
2023/06/21 08:01:12;;;;;;;38.42;6.22;;;;;;;18.71;100.00;94455.13;5027511;28;20037;-52
2023/06/21 08:03:40;;;;;;;7.28;2.80;;;;;;;17.84;100.00;94430.91;5028383;28;20049;-52
2023/06/21 08:06:07;;;;;;;10.15;2.67;;;;;;;16.96;100.00;94387.03;5027836;28;20068;-52
2023/06/21 08:08:34;;;;;;;8.80;2.80;;;;;;;17.06;100.00;94366.50;5028552;28;20064;-51
2023/06/21 08:11:00;;;;;;;14.13;3.20;;;;;;;16.20;100.00;94338.72;5019477;28;20044;-51
2023/06/21 08:13:29;;;;;;;11.95;3.25;;;;;;;16.28;100.00;94319.88;5003282;28;20434;-58
2023/06/21 08:15:56;;;;;;;12.57;3.38;;;;;;;16.02;100.00;94306.03;5030931;28;20045;-53
2023/06/21 08:18:22;;;;;;;10.85;3.35;;;;;;;15.71;100.00;94302.94;5031666;28;20059;-59
2023/06/21 08:20:49;;;;;;;10.30;2.88;;;;;;;15.35;100.00;94290.13;5032033;28;20045;-55
2023/06/21 08:23:16;;;;;;;11.30;2.60;;;;;;;15.34;100.00;94269.22;5031229;28;20050;-51
2023/06/21 08:25:45;;;;;;;9.77;2.70;;;;;;;15.07;100.00;94245.47;5031446;28;20049;-53
2023/06/21 08:28:12;;;;;;;11.95;2.67;;;;;;;15.23;100.00;94235.56;5031072;28;20111;-52
2023/06/21 08:30:39;;;;;;;10.13;2.72;;;;;;;15.30;100.00;94204.94;5023151;28;20123;-59
2023/06/21 08:33:05;;;;;;;10.68;2.80;;;;;;;15.52;100.00;94200.34;5023447;28;20056;-54
2023/06/21 08:35:32;;;;;;;10.07;2.47;;;;;;;15.73;100.00;94209.22;5024906;28;20037;-52
2023/06/21 08:37:59;;;;;;;13.52;2.83;;;;;;;15.78;100.00;94220.53;5031431;28;20045;-57
2023/06/21 08:40:45;;;;;;;9.88;2.90;;;;;;;15.91;100.00;94239.13;5029797;28;20874;-51
2023/06/21 08:43:12;;;;;;;14.50;4.15;;;;;;;15.86;100.00;94259.06;5030156;28;20045;-51
2023/06/21 08:45:39;;;;;;;9.70;2.95;;;;;;;16.08;100.00;94267.50;5046216;28;20144;-62
2023/06/21 08:48:06;;;;;;;10.10;2.37;;;;;;;16.21;100.00;94259.19;5005354;28;20053;-55
2023/06/21 08:50:40;;;;;;;9.65;3.22;;;;;;;16.22;100.00;94250.44;5030942;28;20030;-54
2023/06/21 08:53:12;;;;;;;10.77;2.50;;;;;;;15.68;100.00;94254.03;5031048;28;20413;-60
2023/06/21 08:55:41;;;;;;;10.98;2.20;;;;;;;15.46;100.00;94249.13;5030797;28;20041;-58
2023/06/21 08:58:15;;;;;;;9.27;2.10;;;;;;;15.37;100.00;94269.13;5022647;28;20072;-59
2023/06/21 09:00:47;;;;;;;8.90;2.30;;;;;;;15.54;100.00;94267.06;5027004;28;20051;-49
2023/06/21 09:03:19;;;;;;;10.00;2.60;;;;;;;15.82;100.00;94275.00;5030702;28;20045;-54
2023/06/21 09:06:02;;;;;;;10.23;2.60;;;;;;;16.16;100.00;94297.28;5030779;28;20033;-52
2023/06/21 09:08:31;;;;;;;10.38;2.85;;;;;;;16.32;100.00;94293.63;5030167;28;20309;-60
2023/06/21 09:10:58;;;;;;;10.68;3.03;;;;;;;16.31;100.00;94313.44;5022252;28;20049;-59
2023/06/21 09:13:27;;;;;;;12.97;3.10;;;;;;;16.53;100.00;94308.00;5010432;28;20484;-58
2023/06/21 09:15:55;;;;;;;8.77;2.50;;;;;;;16.60;100.00;94321.66;5029367;28;20048;-55
2023/06/21 09:18:23;;;;;;;9.15;2.60;;;;;;;16.55;100.00;94311.88;5030076;28;20118;-61
2023/06/21 09:20:50;;;;;;;11.50;2.83;;;;;;;16.44;100.00;94314.25;5030847;28;20053;-58
2023/06/21 09:23:17;;;;;;;11.35;3.17;;;;;;;16.77;100.00;94300.13;5029800;28;20046;-53
2023/06/21 09:25:44;;;;;;;10.73;3.30;;;;;;;16.72;100.00;94301.47;5029856;28;20041;-54
2023/06/21 09:28:12;;;;;;;15.07;3.40;;;;;;;17.12;100.00;94303.72;5029625;28;20067;-56
2023/06/21 09:30:39;;;;;;;14.45;3.50;;;;;;;17.09;100.00;94298.28;5022260;28;20038;-60
2023/06/21 09:33:07;;;;;;;13.13;3.60;;;;;;;17.43;100.00;94296.72;5030303;28;20101;-57
2023/06/21 09:35:38;;;;;;;12.65;3.60;;;;;;;17.46;100.00;94282.72;5015997;28;20437;-57
2023/06/21 09:38:24;;;;;;;10.30;3.40;;;;;;;18.20;100.00;94294.28;5030051;28;20337;-53
2023/06/21 09:40:51;;;;;;;12.00;4.20;;;;;;;18.56;100.00;94290.09;5029811;28;20064;-60
2023/06/21 09:43:20;;;;;;;12.02;3.80;;;;;;;18.86;100.00;94271.81;5029850;28;20045;-56
2023/06/21 09:46:04;;;;;;;10.35;3.65;;;;;;;19.38;100.00;94285.94;5016750;28;20490;-61
2023/06/21 09:48:35;;;;;;;11.23;3.30;;;;;;;20.28;100.00;94268.78;5029263;28;20045;-57
2023/06/21 09:51:03;;;;;;;10.93;3.77;;;;;;;19.75;100.00;94272.00;5029653;28;20071;-57
2023/06/21 09:53:30;;;;;;;13.07;3.63;;;;;;;20.81;100.00;94266.69;5029179;28;20607;-58
2023/06/21 09:56:00;;;;;;;10.55;3.50;;;;;;;22.26;100.00;94261.59;5030001;28;20064;-56
2023/06/21 09:58:28;;;;;;;10.07;3.33;;;;;;;22.56;100.00;94255.94;5029800;28;20475;-63
2023/06/21 10:00:58;;;;;;;12.25;3.90;;;;;;;22.06;100.00;94262.25;5028854;28;20048;-57
2023/06/21 10:03:27;;;;;;;16.20;3.53;;;;;;;23.12;100.00;94260.31;5028197;28;20048;-61
2023/06/21 10:05:59;;;;;;;8.60;2.90;;;;;;;23.92;100.00;94250.78;5025757;28;20041;-62
2023/06/21 10:08:29;;;;;;;10.20;3.45;;;;;;;25.37;100.00;94266.34;5021459;28;20045;-57
2023/06/21 10:10:56;;;;;;;7.85;3.00;;;;;;;25.22;100.00;94274.22;5029528;28;20052;-62
2023/06/21 10:13:31;;;;;;;8.68;3.40;;;;;;;25.97;100.00;94266.31;5029447;28;20508;-58
2023/06/21 10:16:01;;;;;;;11.27;3.27;;;;;;;26.15;100.00;94253.81;5029782;28;20380;-63
2023/06/21 10:18:28;;;;;;;9.38;3.22;;;;;;;26.44;100.00;94257.38;5028782;28;21538;-58
2023/06/21 10:21:05;;;;;;;11.75;2.97;;;;;;;27.29;100.00;94263.72;5029780;28;20037;-58
2023/06/21 10:23:41;;;;;;;10.90;3.10;;;;;;;28.21;88.49;94259.91;5028584;28;20057;-62
2023/06/21 10:26:14;;;;;;;8.27;2.72;;;;;;;29.26;80.94;94259.53;5028939;28;20050;-60
2023/06/21 10:28:45;;;;;;;12.23;3.27;;;;;;;28.61;76.86;94261.16;5016221;28;20406;-57
2023/06/21 10:31:12;;;;;;;9.80;3.03;;;;;;;28.44;85.88;94263.34;5025014;28;20401;-57
2023/06/21 10:33:40;;;;;;;8.27;2.95;;;;;;;27.00;86.31;94270.66;5028647;28;20052;-57
2023/06/21 10:36:12;;;;;;;10.23;3.10;;;;;;;26.47;91.83;94267.63;5020633;28;20057;-57
2023/06/21 10:38:53;;;;;;;9.05;2.95;;;;;;;27.13;89.73;94262.44;5011032;28;20058;-58
2023/06/21 10:41:20;;;;;;;9.40;3.10;;;;;;;27.45;98.27;94256.47;5028440;28;20045;-58
2023/06/21 10:43:47;;;;;;;11.68;3.22;;;;;;;27.96;89.27;94248.53;5028997;28;20459;-58
2023/06/21 10:46:15;;;;;;;10.07;3.17;;;;;;;27.81;82.05;94248.06;5016895;28;20080;-61
2023/06/21 10:48:44;;;;;;;8.63;3.00;;;;;;;25.81;98.32;94255.78;5013055;28;20107;-61
2023/06/21 10:51:13;;;;;;;9.80;2.92;;;;;;;27.04;95.94;94240.94;5028579;28;20059;-57
2023/06/21 10:53:41;;;;;;;8.40;3.20;;;;;;;27.40;93.39;94245.97;5029337;28;20402;-61
2023/06/21 10:56:13;;;;;;;9.90;3.17;;;;;;;25.83;97.59;94237.09;5028019;28;20106;-61
2023/06/21 10:58:41;;;;;;;10.68;3.33;;;;;;;25.61;100.00;94229.41;5028817;28;20602;-58
2023/06/21 11:01:12;;;;;;;12.48;3.50;;;;;;;25.16;100.00;94236.88;5028530;28;20494;-56
2023/06/21 11:03:39;;;;;;;9.40;3.20;;;;;;;25.37;98.20;94229.84;5044137;28;20376;-56
2023/06/21 11:06:28;;;;;;;7.90;3.03;;;;;;;24.58;100.00;94235.03;5024126;28;20058;-57
2023/06/21 11:09:16;;;;;;;9.25;3.65;;;;;;;24.98;100.00;94227.59;5023952;28;20061;-57
2023/06/21 11:11:53;;;;;;;11.13;3.47;;;;;;;25.43;100.00;94219.38;5027975;28;20714;-56
2023/06/21 11:14:31;;;;;;;9.65;3.45;;;;;;;25.99;100.00;94213.13;5028047;28;20045;-56
2023/06/21 11:17:07;;;;;;;8.88;3.53;;;;;;;25.27;100.00;94222.91;5023448;28;20409;-56
2023/06/21 11:19:36;;;;;;;8.60;3.60;;;;;;;24.30;100.00;94229.94;5021584;28;20708;-56
2023/06/21 11:22:17;;;;;;;9.20;3.60;;;;;;;25.21;100.00;94225.72;5028088;28;20410;-54